SAS1817 ESSA-EFHK
Flight info
| Callsign | SAS1817 |
|---|---|
| Flight time | 0h 43m |
| Altitude | 27000 |
| Route | TOVRI5L TOVRI N851 RIKUM DCT RIRIP Y364 LAKUT LAKUT9B |
| Aircraft | A320/M-SDE3FGHIRWY/LB1 |
Departure
| Time | 2026-04-23 16:57 |
|---|---|
| Airport | Stockholm-Arlanda Airport (ESSA) |
Arrival
| Time | 2026-04-23 17:41 |
|---|---|
| Airport | Helsinki Vantaa Airport (EFHK) |
| Time | Latitude | Longitude | Altitude | Speed | Heading |
|---|---|---|---|---|---|
| 2026-04-23 16:49 | 59.65330 | 17.93139 | 111 ft | 0 kts | 251° |
| 2026-04-23 16:53 | 59.65332 | 17.93149 | 112 ft | 2 kts | 251° |
| 2026-04-23 16:53 | 59.65337 | 17.93180 | 112 ft | 2 kts | 251° |
| 2026-04-23 16:54 | 59.65343 | 17.93212 | 109 ft | 2 kts | 251° |
| 2026-04-23 16:54 | 59.65349 | 17.93244 | 111 ft | 2 kts | 271° |
| 2026-04-23 16:54 | 59.65343 | 17.93274 | 110 ft | 2 kts | 342° |
| 2026-04-23 16:54 | 59.65342 | 17.93275 | 110 ft | 0 kts | 342° |
| 2026-04-23 16:55 | 59.65344 | 17.93274 | 110 ft | 2 kts | 343° |
| 2026-04-23 16:55 | 59.65414 | 17.93317 | 112 ft | 19 kts | 24° |
| 2026-04-23 16:56 | 59.65545 | 17.93323 | 111 ft | 20 kts | 345° |
| 2026-04-23 16:56 | 59.65640 | 17.93333 | 109 ft | 22 kts | 26° |
| 2026-04-23 16:56 | 59.65747 | 17.93545 | 113 ft | 21 kts | 45° |
| 2026-04-23 16:56 | 59.65847 | 17.93752 | 115 ft | 21 kts | 53° |
| 2026-04-23 16:57 | 59.65901 | 17.94092 | 120 ft | 47 kts | 76° |
| 2026-04-23 16:57 | 59.66045 | 17.95217 | 122 ft | 118 kts | 76° |
| 2026-04-23 16:57 | 59.66287 | 17.97117 | 312 ft | 152 kts | 75° |
| 2026-04-23 16:57 | 59.66530 | 17.99106 | 1049 ft | 147 kts | 73° |
| 2026-04-23 16:58 | 59.66781 | 18.01110 | 1620 ft | 157 kts | 70° |
| 2026-04-23 16:58 | 59.67075 | 18.03355 | 1940 ft | 180 kts | 71° |
| 2026-04-23 16:58 | 59.67385 | 18.05929 | 2250 ft | 205 kts | 73° |
| 2026-04-23 16:58 | 59.67718 | 18.08860 | 2673 ft | 231 kts | 73° |
| 2026-04-23 16:59 | 59.68081 | 18.12134 | 3208 ft | 254 kts | 73° |
| 2026-04-23 16:59 | 59.68460 | 18.15613 | 4039 ft | 263 kts | 73° |
| 2026-04-23 16:59 | 59.68845 | 18.19195 | 4965 ft | 269 kts | 72° |
| 2026-04-23 16:59 | 59.69238 | 18.22847 | 5901 ft | 273 kts | 72° |
| 2026-04-23 17:00 | 59.69645 | 18.26545 | 6829 ft | 276 kts | 68° |
| 2026-04-23 17:00 | 59.70377 | 18.30012 | 7691 ft | 273 kts | 57° |
| 2026-04-23 17:00 | 59.71228 | 18.33404 | 8635 ft | 276 kts | 57° |
| 2026-04-23 17:00 | 59.72085 | 18.36830 | 9580 ft | 279 kts | 58° |
| 2026-04-23 17:01 | 59.72953 | 18.40309 | 10331 ft | 289 kts | 58° |
| 2026-04-23 17:01 | 59.73886 | 18.44025 | 10636 ft | 312 kts | 58° |
| 2026-04-23 17:01 | 59.74871 | 18.47964 | 11236 ft | 323 kts | 58° |
| 2026-04-23 17:01 | 59.75872 | 18.51995 | 11995 ft | 328 kts | 58° |
| 2026-04-23 17:02 | 59.76889 | 18.56108 | 12632 ft | 339 kts | 58° |
| 2026-04-23 17:02 | 59.77966 | 18.60444 | 12792 ft | 362 kts | 58° |
| 2026-04-23 17:02 | 59.79102 | 18.65039 | 13125 ft | 377 kts | 58° |
| 2026-04-23 17:02 | 59.80262 | 18.69754 | 13740 ft | 383 kts | 58° |
| 2026-04-23 17:03 | 59.81430 | 18.74531 | 14389 ft | 386 kts | 58° |
| 2026-04-23 17:03 | 59.82593 | 18.79360 | 15045 ft | 388 kts | 59° |
| 2026-04-23 17:03 | 59.83751 | 18.84220 | 15677 ft | 390 kts | 59° |
| 2026-04-23 17:03 | 59.84911 | 18.89110 | 16304 ft | 392 kts | 58° |
| 2026-04-23 17:04 | 59.86075 | 18.94024 | 16907 ft | 394 kts | 58° |
| 2026-04-23 17:04 | 59.87249 | 18.98980 | 17510 ft | 397 kts | 58° |
| 2026-04-23 17:04 | 59.88432 | 19.03965 | 18099 ft | 399 kts | 58° |
| 2026-04-23 17:04 | 59.89622 | 19.08977 | 18629 ft | 401 kts | 58° |
| 2026-04-23 17:05 | 59.90816 | 19.14023 | 19122 ft | 404 kts | 58° |
| 2026-04-23 17:05 | 59.92016 | 19.19105 | 19603 ft | 406 kts | 58° |
| 2026-04-23 17:05 | 59.93221 | 19.24218 | 20093 ft | 409 kts | 57° |
| 2026-04-23 17:05 | 59.94411 | 19.29304 | 20570 ft | 411 kts | 57° |
| 2026-04-23 17:06 | 59.95638 | 19.34562 | 21046 ft | 414 kts | 57° |
| 2026-04-23 17:06 | 59.96748 | 19.39818 | 21471 ft | 422 kts | 63° |
| 2026-04-23 17:06 | 59.97579 | 19.45492 | 21920 ft | 429 kts | 68° |
| 2026-04-23 17:06 | 59.98232 | 19.51350 | 22344 ft | 435 kts | 70° |
| 2026-04-23 17:07 | 59.98811 | 19.57298 | 22763 ft | 438 kts | 71° |
| 2026-04-23 17:07 | 59.99397 | 19.63282 | 23176 ft | 440 kts | 70° |
| 2026-04-23 17:07 | 60.00028 | 19.69275 | 23574 ft | 441 kts | 69° |
| 2026-04-23 17:07 | 60.00711 | 19.75262 | 23913 ft | 443 kts | 68° |
| 2026-04-23 17:08 | 60.01435 | 19.81255 | 24245 ft | 444 kts | 68° |
| 2026-04-23 17:08 | 60.02180 | 19.87263 | 24575 ft | 446 kts | 67° |
| 2026-04-23 17:08 | 60.02926 | 19.93292 | 24894 ft | 448 kts | 68° |
| 2026-04-23 17:08 | 60.03669 | 19.99368 | 25210 ft | 450 kts | 68° |
| 2026-04-23 17:09 | 60.04404 | 20.05470 | 25523 ft | 452 kts | 68° |
| 2026-04-23 17:09 | 60.05133 | 20.11599 | 25833 ft | 454 kts | 68° |
| 2026-04-23 17:09 | 60.05859 | 20.17763 | 26150 ft | 456 kts | 68° |
| 2026-04-23 17:09 | 60.06581 | 20.23960 | 26439 ft | 458 kts | 68° |
| 2026-04-23 17:10 | 60.07303 | 20.30188 | 26711 ft | 460 kts | 68° |
| 2026-04-23 17:10 | 60.08025 | 20.36439 | 26944 ft | 461 kts | 68° |
| 2026-04-23 17:10 | 60.08744 | 20.42679 | 26972 ft | 460 kts | 68° |
| 2026-04-23 17:10 | 60.09460 | 20.48916 | 26971 ft | 459 kts | 68° |
| 2026-04-23 17:11 | 60.10172 | 20.55151 | 26963 ft | 459 kts | 68° |
| 2026-04-23 17:11 | 60.10880 | 20.61389 | 26955 ft | 459 kts | 68° |
| 2026-04-23 17:11 | 60.11589 | 20.67638 | 26957 ft | 459 kts | 68° |
| 2026-04-23 17:11 | 60.12297 | 20.73875 | 26957 ft | 459 kts | 68° |
| 2026-04-23 17:12 | 60.13003 | 20.80122 | 26954 ft | 459 kts | 68° |
| 2026-04-23 17:12 | 60.13703 | 20.86365 | 26958 ft | 459 kts | 68° |
| 2026-04-23 17:12 | 60.14400 | 20.92624 | 26958 ft | 459 kts | 68° |
| 2026-04-23 17:12 | 60.15092 | 20.98877 | 26957 ft | 460 kts | 68° |
| 2026-04-23 17:13 | 60.15782 | 21.05146 | 26956 ft | 460 kts | 69° |
| 2026-04-23 17:13 | 60.16469 | 21.11416 | 26956 ft | 460 kts | 69° |
| 2026-04-23 17:13 | 60.17153 | 21.17685 | 26952 ft | 459 kts | 68° |
| 2026-04-23 17:13 | 60.17835 | 21.23941 | 26939 ft | 458 kts | 68° |
| 2026-04-23 17:14 | 60.18500 | 21.30075 | 26382 ft | 452 kts | 68° |
| 2026-04-23 17:14 | 60.19159 | 21.36211 | 25588 ft | 447 kts | 69° |
| 2026-04-23 17:14 | 60.19809 | 21.42295 | 24819 ft | 443 kts | 68° |
| 2026-04-23 17:14 | 60.20454 | 21.48335 | 24059 ft | 440 kts | 69° |
| 2026-04-23 17:15 | 60.21092 | 21.54325 | 23310 ft | 437 kts | 69° |
| 2026-04-23 17:15 | 60.21724 | 21.60273 | 22519 ft | 433 kts | 69° |
| 2026-04-23 17:15 | 60.22346 | 21.66162 | 21782 ft | 429 kts | 69° |
| 2026-04-23 17:15 | 60.22959 | 21.72000 | 21083 ft | 424 kts | 69° |
| 2026-04-23 17:16 | 60.23561 | 21.77782 | 20401 ft | 420 kts | 69° |
| 2026-04-23 17:16 | 60.24155 | 21.83515 | 19805 ft | 415 kts | 70° |
| 2026-04-23 17:16 | 60.24741 | 21.89183 | 19117 ft | 412 kts | 70° |
| 2026-04-23 17:16 | 60.25324 | 21.94817 | 18496 ft | 409 kts | 70° |
| 2026-04-23 17:17 | 60.25900 | 22.00407 | 17850 ft | 406 kts | 70° |
| 2026-04-23 17:17 | 60.26467 | 22.05951 | 17169 ft | 402 kts | 70° |
| 2026-04-23 17:17 | 60.27024 | 22.11454 | 16519 ft | 399 kts | 70° |
| 2026-04-23 17:17 | 60.27573 | 22.16909 | 15874 ft | 396 kts | 71° |
| 2026-04-23 17:18 | 60.28652 | 22.27684 | 14649 ft | 389 kts | 71° |
| 2026-04-23 17:18 | 60.29185 | 22.33020 | 14052 ft | 387 kts | 71° |
| 2026-04-23 17:18 | 60.29715 | 22.38317 | 13440 ft | 384 kts | 72° |
| 2026-04-23 17:19 | 60.30238 | 22.43573 | 12818 ft | 381 kts | 72° |
| 2026-04-23 17:19 | 60.30753 | 22.48785 | 12206 ft | 377 kts | 72° |
| 2026-04-23 17:19 | 60.31262 | 22.53957 | 11603 ft | 374 kts | 72° |
| 2026-04-23 17:19 | 60.31762 | 22.59086 | 10992 ft | 370 kts | 72° |
| 2026-04-23 17:20 | 60.32255 | 22.64156 | 10393 ft | 367 kts | 73° |
| 2026-04-23 17:20 | 60.33239 | 22.74250 | 9889 ft | 366 kts | 73° |
| 2026-04-23 17:21 | 60.34230 | 22.84326 | 9912 ft | 366 kts | 73° |
| 2026-04-23 17:21 | 60.34721 | 22.89373 | 9902 ft | 366 kts | 73° |
| 2026-04-23 17:21 | 60.35677 | 22.99404 | 9895 ft | 352 kts | 73° |
| 2026-04-23 17:22 | 60.36114 | 23.04119 | 9898 ft | 332 kts | 73° |
| 2026-04-23 17:22 | 60.36913 | 23.12726 | 9899 ft | 297 kts | 72° |
| 2026-04-23 17:23 | 60.37678 | 23.20732 | 9891 ft | 287 kts | 72° |
| 2026-04-23 17:23 | 60.38058 | 23.24692 | 9893 ft | 287 kts | 72° |
| 2026-04-23 17:23 | 60.38808 | 23.32627 | 9896 ft | 287 kts | 72° |
| 2026-04-23 17:24 | 60.39179 | 23.36600 | 9896 ft | 288 kts | 72° |
| 2026-04-23 17:24 | 60.39548 | 23.40573 | 9898 ft | 287 kts | 72° |
| 2026-04-23 17:24 | 60.40284 | 23.48519 | 9893 ft | 287 kts | 72° |
| 2026-04-23 17:25 | 60.41012 | 23.56472 | 9895 ft | 287 kts | 72° |
| 2026-04-23 17:25 | 60.41373 | 23.60434 | 9889 ft | 286 kts | 72° |
| 2026-04-23 17:26 | 60.42087 | 23.68360 | 9887 ft | 286 kts | 72° |
| 2026-04-23 17:26 | 60.42794 | 23.76283 | 9882 ft | 286 kts | 72° |
| 2026-04-23 17:27 | 60.43497 | 23.84219 | 9855 ft | 286 kts | 72° |
| 2026-04-23 17:27 | 60.43843 | 23.88158 | 9497 ft | 284 kts | 73° |
| 2026-04-23 17:27 | 60.44125 | 23.92117 | 9103 ft | 284 kts | 76° |
| 2026-04-23 17:27 | 60.44354 | 23.96079 | 8702 ft | 282 kts | 77° |
| 2026-04-23 17:28 | 60.44565 | 24.00020 | 8321 ft | 281 kts | 77° |
| 2026-04-23 17:28 | 60.44756 | 24.03953 | 7934 ft | 281 kts | 82° |
| 2026-04-23 17:28 | 60.44682 | 24.07922 | 7550 ft | 282 kts | 88° |
| 2026-04-23 17:28 | 60.44557 | 24.11876 | 7195 ft | 280 kts | 89° |
| 2026-04-23 17:29 | 60.44442 | 24.15793 | 6895 ft | 277 kts | 89° |
| 2026-04-23 17:29 | 60.44331 | 24.19689 | 6871 ft | 278 kts | 89° |
| 2026-04-23 17:29 | 60.44108 | 24.27427 | 6436 ft | 274 kts | 89° |
| 2026-04-23 17:30 | 60.44031 | 24.30023 | 6367 ft | 274 kts | 89° |
| 2026-04-23 17:30 | 60.43764 | 24.38652 | 6055 ft | 251 kts | 90° |
| 2026-04-23 17:30 | 60.43654 | 24.42101 | 5919 ft | 240 kts | 90° |
| 2026-04-23 17:31 | 60.43511 | 24.45411 | 5784 ft | 234 kts | 96° |
| 2026-04-23 17:31 | 60.43073 | 24.48583 | 5637 ft | 235 kts | 109° |
| 2026-04-23 17:31 | 60.42300 | 24.51514 | 5517 ft | 238 kts | 122° |
| 2026-04-23 17:31 | 60.41220 | 24.54048 | 5382 ft | 239 kts | 136° |
| 2026-04-23 17:32 | 60.39941 | 24.56208 | 5244 ft | 240 kts | 139° |
| 2026-04-23 17:32 | 60.38650 | 24.58355 | 5104 ft | 240 kts | 139° |
| 2026-04-23 17:32 | 60.37365 | 24.60500 | 4984 ft | 239 kts | 139° |
| 2026-04-23 17:32 | 60.36088 | 24.62638 | 4850 ft | 236 kts | 139° |
| 2026-04-23 17:33 | 60.34718 | 24.64333 | 4718 ft | 228 kts | 159° |
| 2026-04-23 17:33 | 60.33197 | 24.64988 | 4589 ft | 221 kts | 180° |
| 2026-04-23 17:33 | 60.31700 | 24.64619 | 4452 ft | 215 kts | 200° |
| 2026-04-23 17:33 | 60.30369 | 24.63339 | 4323 ft | 210 kts | 220° |
| 2026-04-23 17:34 | 60.29318 | 24.61364 | 4190 ft | 206 kts | 232° |
| 2026-04-23 17:34 | 60.28351 | 24.59239 | 4052 ft | 206 kts | 232° |
| 2026-04-23 17:34 | 60.26402 | 24.55025 | 3785 ft | 205 kts | 227° |
| 2026-04-23 17:35 | 60.25158 | 24.53594 | 3667 ft | 211 kts | 195° |
| 2026-04-23 17:35 | 60.22839 | 24.54622 | 3575 ft | 212 kts | 137° |
| 2026-04-23 17:35 | 60.21879 | 24.57881 | 3509 ft | 202 kts | 102° |
| 2026-04-23 17:36 | 60.21491 | 24.60603 | 3475 ft | 203 kts | 102° |
| 2026-04-23 17:36 | 60.21107 | 24.63327 | 3400 ft | 202 kts | 99° |
| 2026-04-23 17:36 | 60.21042 | 24.66078 | 3253 ft | 195 kts | 77° |
| 2026-04-23 17:36 | 60.21460 | 24.68613 | 3050 ft | 189 kts | 56° |
| 2026-04-23 17:37 | 60.22265 | 24.70662 | 2842 ft | 187 kts | 43° |
| 2026-04-23 17:37 | 60.23155 | 24.72593 | 2582 ft | 190 kts | 43° |
| 2026-04-23 17:37 | 60.24963 | 24.76531 | 2046 ft | 189 kts | 44° |
| 2026-04-23 17:38 | 60.25823 | 24.78413 | 1795 ft | 175 kts | 44° |
| 2026-04-23 17:38 | 60.26608 | 24.80128 | 1558 ft | 163 kts | 44° |
| 2026-04-23 17:38 | 60.27343 | 24.81737 | 1359 ft | 148 kts | 44° |
| 2026-04-23 17:38 | 60.28031 | 24.83238 | 1130 ft | 143 kts | 43° |
| 2026-04-23 17:39 | 60.28704 | 24.84711 | 930 ft | 143 kts | 44° |
| 2026-04-23 17:39 | 60.29379 | 24.86188 | 732 ft | 144 kts | 44° |
| 2026-04-23 17:39 | 60.30062 | 24.87690 | 529 ft | 145 kts | 44° |
| 2026-04-23 17:39 | 60.30749 | 24.89195 | 374 ft | 146 kts | 44° |
| 2026-04-23 17:40 | 60.31433 | 24.90694 | 200 ft | 144 kts | 44° |
| 2026-04-23 17:40 | 60.32083 | 24.92118 | 158 ft | 123 kts | 49° |
| 2026-04-23 17:40 | 60.32470 | 24.92969 | 174 ft | 57 kts | 47° |
| 2026-04-23 17:40 | 60.32732 | 24.93545 | 181 ft | 56 kts | 48° |
| 2026-04-23 17:41 | 60.32984 | 24.94101 | 194 ft | 33 kts | 47° |
| 2026-04-23 17:41 | 60.33018 | 24.94682 | 181 ft | 15 kts | 135° |
| 2026-04-23 17:41 | 60.32963 | 24.94785 | 178 ft | 11 kts | 138° |
| 2026-04-23 17:42 | 60.33117 | 24.95190 | 178 ft | 32 kts | 48° |
| 2026-04-23 17:42 | 60.33192 | 24.95527 | 182 ft | 24 kts | 121° |
| 2026-04-23 17:42 | 60.33066 | 24.95764 | 181 ft | 20 kts | 141° |
| 2026-04-23 17:43 | 60.32952 | 24.95910 | 178 ft | 17 kts | 151° |
| 2026-04-23 17:43 | 60.32902 | 24.96118 | 174 ft | 17 kts | 104° |
| 2026-04-23 17:43 | 60.32820 | 24.96281 | 173 ft | 17 kts | 149° |
| 2026-04-23 17:43 | 60.32719 | 24.96395 | 171 ft | 16 kts | 150° |
| 2026-04-23 17:44 | 60.32626 | 24.96502 | 172 ft | 14 kts | 150° |
| 2026-04-23 17:44 | 60.32547 | 24.96593 | 172 ft | 8 kts | 151° |
| 2026-04-23 17:44 | 60.32486 | 24.96662 | 175 ft | 13 kts | 151° |
| 2026-04-23 17:45 | 60.32398 | 24.96754 | 170 ft | 17 kts | 154° |
| 2026-04-23 17:45 | 60.32174 | 24.96983 | 166 ft | 25 kts | 153° |
| 2026-04-23 17:45 | 60.32001 | 24.97156 | 168 ft | 8 kts | 157° |
| 2026-04-23 17:46 | 60.31907 | 24.97130 | 166 ft | 10 kts | 209° |
| 2026-04-23 17:46 | 60.31865 | 24.97009 | 167 ft | 0 kts | 243° |